Aviation Digital Data Service (ADDS)

Output produced by TAFs form (0538 UTC 01 February 2015)
found at http://aviationweather.gov/adds/tafs/
 
KMAF 010528Z 0106/0206 21007KT 4SM BR OVC004 
     TEMPO 0106/0110 1/4SM FG OVC002 
     FM011600 36014KT P6SM OVC010 
     FM011900 02015KT P6SM BKN020 
     FM012200 03011KT P6SM BKN035